Arklow Rock — PBZM — position and weather

sailwx.info

Track history (hours):
 
Tides and Currents Weather Stations Pressure Air Temp Water Temp Dewpoint Dewpoint Depression Visibility Wind Speed Wind Dir Waves Ship Positions

Arklow Rock

Last reported at 2016-Jul-24 00:24 UTC. Time now 2016-Jul-24 01:02 UTC.
Position N 50°23' E 000°15'.

Length 90 m; draft 6.2 m.

Type: Cargo ship. MMSI: 246002000.

Date/timePositionNaut miles runAvg speedWind from/ knotsBaromVisibWave heightAir tempDewpointWater temp
2016-Jul-24 00:24N 50°23' E 000°15'1213.2
2016-Jul-23 23:28N 50°21' W 000°04'1313.6
2016-Jul-23 22:33N 50°24' W 000°23'1613.7
2016-Jul-23 21:25N 50°28' W 000°46'1513.7
2016-Jul-23 20:18N 50°29' W 001°11'49 9.7
2016-Jul-23 15:13N 50°19' W 002°26'7 9.2
2016-Jul-23 14:30N 50°18' W 002°36'1010.3
2016-Jul-23 13:32N 50°16' W 002°52'1111.5
2016-Jul-23 12:33N 50°14' W 003°09'1211.9
2016-Jul-23 11:33N 50°12' W 003°27'1211.8
2016-Jul-23 10:33N 50°09' W 003°45'1211.9
2016-Jul-23 09:33N 50°06' W 004°03'1111.3
2016-Jul-23 08:32N 50°04' W 004°21'1212.0
2016-Jul-23 07:33N 50°01' W 004°38'1211.9
2016-Jul-23 06:32N 49°58' W 004°57'3411.1
2016-Jul-23 03:28N 49°47' W 005°46'2410.1
2016-Jul-23 01:05N 49°39' W 006°21'8 9.5
2016-Jul-23 00:12N 49°39' W 006°35'13610.7
2016-Jul-22 11:31N 51°03' W 009°22'1010.3
2016-Jul-22 10:33N 51°09' W 009°35'1010.2
2016-Jul-22 09:33N 51°16' W 009°47'1110.5
2016-Jul-22 08:33N 51°22' W 010°01'1310.9
2016-Jul-22 07:20N 51°31' W 010°17'  
2016-Jul-15 17:06N 51°26' W 010°11'6 9.8
2016-Jul-15 16:28N 51°22' W 010°03'10 9.7
2016-Jul-15 15:24N 51°16' W 009°50'9 9.6
2016-Jul-15 14:24N 51°11' W 009°37'10 9.2
2016-Jul-15 13:18N 51°05' W 009°24'206 8.7
2016-Jul-14 13:33N 50°05' W 004°14'11 9.1
2016-Jul-14 12:20N 50°08' W 003°57'8 9.4
2016-Jul-14 11:31N 50°10' W 003°46'10 9.9
2016-Jul-14 10:33N 50°11' W 003°31'1110.5
2016-Jul-14 09:33N 50°13' W 003°15'1111.0
2016-Jul-14 08:33N 50°14' W 002°58'1110.9
2016-Jul-14 07:33N 50°16' W 002°41'  
Track history (hours):
 
Tides and Currents Weather Stations Pressure Air Temp Water Temp Dewpoint Dewpoint Depression Visibility Wind Speed Wind Dir Waves Ship Positions

Arklow Rock

Last reported at 2016-Jul-24 00:24 UTC. Time now 2016-Jul-24 01:02 UTC.
Position N 50°23' E 000°15'.

Length 90 m; draft 6.2 m.

Type: Cargo ship. MMSI: 246002000.

Date/timePositionNaut miles runAvg speedWind from/ knotsBaromVisibWave heightAir tempDewpointWater temp
2016-Jul-24 00:24N 50°23' E 000°15'1213.2
2016-Jul-23 23:28N 50°21' W 000°04'1313.6
2016-Jul-23 22:33N 50°24' W 000°23'1613.7
2016-Jul-23 21:25N 50°28' W 000°46'1513.7
2016-Jul-23 20:18N 50°29' W 001°11'49 9.7
2016-Jul-23 15:13N 50°19' W 002°26'7 9.2
2016-Jul-23 14:30N 50°18' W 002°36'1010.3
2016-Jul-23 13:32N 50°16' W 002°52'1111.5
2016-Jul-23 12:33N 50°14' W 003°09'1211.9
2016-Jul-23 11:33N 50°12' W 003°27'1211.8
2016-Jul-23 10:33N 50°09' W 003°45'1211.9
2016-Jul-23 09:33N 50°06' W 004°03'1111.3
2016-Jul-23 08:32N 50°04' W 004°21'1212.0
2016-Jul-23 07:33N 50°01' W 004°38'1211.9
2016-Jul-23 06:32N 49°58' W 004°57'3411.1
2016-Jul-23 03:28N 49°47' W 005°46'2410.1
2016-Jul-23 01:05N 49°39' W 006°21'8 9.5
2016-Jul-23 00:12N 49°39' W 006°35'13610.7
2016-Jul-22 11:31N 51°03' W 009°22'1010.3
2016-Jul-22 10:33N 51°09' W 009°35'1010.2
2016-Jul-22 09:33N 51°16' W 009°47'1110.5
2016-Jul-22 08:33N 51°22' W 010°01'1310.9
2016-Jul-22 07:20N 51°31' W 010°17'  
2016-Jul-15 17:06N 51°26' W 010°11'6 9.8
2016-Jul-15 16:28N 51°22' W 010°03'10 9.7
2016-Jul-15 15:24N 51°16' W 009°50'9 9.6
2016-Jul-15 14:24N 51°11' W 009°37'10 9.2
2016-Jul-15 13:18N 51°05' W 009°24'206 8.7
2016-Jul-14 13:33N 50°05' W 004°14'11 9.1
2016-Jul-14 12:20N 50°08' W 003°57'8 9.4
2016-Jul-14 11:31N 50°10' W 003°46'10 9.9
2016-Jul-14 10:33N 50°11' W 003°31'1110.5
2016-Jul-14 09:33N 50°13' W 003°15'1111.0
2016-Jul-14 08:33N 50°14' W 002°58'1110.9
2016-Jul-14 07:33N 50°16' W 002°41'  

Dump ship's entire track history